createdAt,value
2024-03-26T00:00:28.014Z,83.01
2024-03-26T00:01:28.347Z,83.83
2024-03-26T00:02:28.023Z,79.50
2024-03-26T00:03:28.025Z,79.57
2024-03-26T00:04:28.023Z,80.81
2024-03-26T00:05:28.027Z,79.50
2024-03-26T00:06:28.028Z,75.28
2024-03-26T00:07:28.053Z,80.95
2024-03-26T00:08:28.051Z,77.74
2024-03-26T00:09:28.033Z,71.63
2024-03-26T00:10:28.033Z,72.48
2024-03-26T00:11:28.346Z,70.22
2024-03-26T00:12:28.044Z,72.18
2024-03-26T00:13:28.033Z,75.03
2024-03-26T00:14:28.067Z,77.52
2024-03-26T00:15:28.041Z,76.58
2024-03-26T00:16:28.341Z,80.76
2024-03-26T00:17:28.063Z,76.78
2024-03-26T00:18:28.044Z,76.14
2024-03-26T00:19:28.049Z,73.36
2024-03-26T00:20:28.044Z,72.65
2024-03-26T00:21:28.357Z,76.00
2024-03-26T00:22:28.057Z,76.94
2024-03-26T00:23:28.055Z,74.71
2024-03-26T00:24:28.056Z,78.44
2024-03-26T00:25:28.043Z,73.19
2024-03-26T00:26:28.074Z,71.05
2024-03-26T00:27:28.043Z,70.88
2024-03-26T00:28:28.042Z,72.45
2024-03-26T00:29:28.044Z,68.72
2024-03-26T00:30:28.069Z,68.71
2024-03-26T00:31:28.350Z,69.31
2024-03-26T00:32:28.078Z,72.49
2024-03-26T00:33:28.061Z,72.42
2024-03-26T00:34:28.064Z,72.83
2024-03-26T00:35:28.087Z,72.66
2024-03-26T00:36:28.087Z,72.49
2024-03-26T00:37:28.069Z,72.25
2024-03-26T00:38:28.089Z,70.36
2024-03-26T00:39:28.068Z,70.70
2024-03-26T00:40:28.069Z,72.86
2024-03-26T00:41:28.356Z,77.63
2024-03-26T00:42:28.087Z,75.91
2024-03-26T00:43:28.089Z,82.07
2024-03-26T00:44:28.081Z,78.29
2024-03-26T00:45:28.098Z,79.11
2024-03-26T00:46:28.350Z,78.83
2024-03-26T00:47:28.085Z,79.02
2024-03-26T00:48:28.093Z,81.71
2024-03-26T00:49:28.102Z,82.17
2024-03-26T00:50:28.105Z,84.81
2024-03-26T00:51:28.085Z,86.88
2024-03-26T00:52:28.099Z,84.59
2024-03-26T00:53:28.087Z,82.99
2024-03-26T00:54:28.108Z,81.46
2024-03-26T00:55:28.111Z,88.66
2024-03-26T00:56:28.103Z,88.63
2024-03-26T00:57:28.092Z,86.96
2024-03-26T00:58:28.107Z,86.81
2024-03-26T00:59:28.152Z,88.26
2024-03-26T01:00:28.174Z,89.20
2024-03-26T01:01:28.215Z,89.81
2024-03-26T01:02:28.222Z,89.93
2024-03-26T01:03:28.224Z,94.03
2024-03-26T01:04:28.240Z,97.42
2024-03-26T01:05:28.283Z,97.46
2024-03-26T01:06:28.292Z,96.68
2024-03-26T01:07:28.340Z,95.72
2024-03-26T01:08:28.360Z,98.71
2024-03-26T01:09:28.402Z,96.75
2024-03-26T01:10:28.394Z,95.88
2024-03-26T01:11:28.883Z,93.98
2024-03-26T01:12:28.451Z,96.77
2024-03-26T01:13:28.510Z,94.23
2024-03-26T01:14:28.529Z,96.21
2024-03-26T01:15:28.542Z,95.08
2024-03-26T01:16:28.870Z,94.59
2024-03-26T01:17:28.658Z,99.04
2024-03-26T01:18:28.614Z,100.51
2024-03-26T01:19:28.655Z,99.98
2024-03-26T01:20:28.673Z,102.70
2024-03-26T01:21:28.708Z,105.10
2024-03-26T01:22:28.799Z,101.56
2024-03-26T01:23:28.747Z,103.50
2024-03-26T01:24:28.756Z,104.17
2024-03-26T01:25:28.764Z,104.68
2024-03-26T01:26:28.802Z,105.01
2024-03-26T01:27:28.810Z,104.62
2024-03-26T01:28:28.866Z,102.98
2024-03-26T01:29:28.871Z,103.30
2024-03-26T01:30:28.904Z,105.90
2024-03-26T01:31:29.394Z,107.34
2024-03-26T01:32:28.965Z,108.96
2024-03-26T01:33:28.963Z,107.09
2024-03-26T01:34:28.984Z,107.19
2024-03-26T01:35:29.013Z,105.44
2024-03-26T01:36:29.062Z,102.19
2024-03-26T01:37:29.094Z,106.60
2024-03-26T01:38:29.118Z,108.30
2024-03-26T01:39:29.143Z,110.23
2024-03-26T01:40:29.156Z,110.43
2024-03-26T01:41:29.153Z,114.31
2024-03-26T01:42:29.183Z,109.44
2024-03-26T01:43:29.233Z,109.21
2024-03-26T01:44:29.241Z,110.55
2024-03-26T01:45:29.283Z,110.35
2024-03-26T01:46:29.303Z,109.20
2024-03-26T01:47:29.290Z,109.30
2024-03-26T01:48:29.323Z,111.22
2024-03-26T01:49:29.379Z,111.26
2024-03-26T01:50:29.383Z,113.13
2024-03-26T01:51:29.430Z,116.13
2024-03-26T01:52:30.506Z,112.81
2024-03-26T01:53:29.470Z,116.96
2024-03-26T01:54:29.485Z,114.48
2024-03-26T01:55:29.503Z,118.30
2024-03-26T01:56:29.539Z,116.76
2024-03-26T01:57:29.544Z,117.33
2024-03-26T01:58:29.584Z,114.41
2024-03-26T01:59:29.602Z,114.94
2024-03-26T02:00:29.677Z,117.97
2024-03-26T02:01:29.886Z,116.58
2024-03-26T02:02:29.809Z,113.63
2024-03-26T02:03:29.792Z,114.94
2024-03-26T02:04:29.720Z,118.66
2024-03-26T02:05:29.811Z,117.76
2024-03-26T02:06:29.787Z,117.84
2024-03-26T02:07:29.793Z,117.76
2024-03-26T02:08:29.841Z,115.39
2024-03-26T02:09:29.889Z,116.51
2024-03-26T02:10:29.939Z,117.43
2024-03-26T02:11:29.949Z,119.63
2024-03-26T02:12:29.977Z,118.91
2024-03-26T02:13:29.989Z,117.14
2024-03-26T02:14:30.014Z,119.64
2024-03-26T02:15:30.025Z,116.66
2024-03-26T02:16:30.407Z,118.27
2024-03-26T02:17:30.090Z,115.46
2024-03-26T02:18:30.110Z,117.03
2024-03-26T02:19:30.165Z,116.40
2024-03-26T02:20:30.914Z,120.46
2024-03-26T02:21:30.203Z,121.65
2024-03-26T02:22:30.247Z,116.49
2024-03-26T02:23:30.247Z,116.08
2024-03-26T02:24:30.362Z,117.92
2024-03-26T02:25:30.325Z,115.32
2024-03-26T02:26:30.341Z,114.21
2024-03-26T02:27:30.374Z,114.12
2024-03-26T02:28:30.393Z,116.00
2024-03-26T02:29:30.411Z,113.04
2024-03-26T02:30:30.454Z,116.38
2024-03-26T02:31:30.906Z,114.94
2024-03-26T02:32:30.511Z,110.04
2024-03-26T02:33:30.535Z,113.79
2024-03-26T02:34:30.544Z,114.00
2024-03-26T02:35:30.573Z,108.52
2024-03-26T02:36:30.927Z,113.06
2024-03-26T02:37:30.638Z,114.43
2024-03-26T02:38:30.651Z,111.78
2024-03-26T02:39:30.670Z,111.09
2024-03-26T02:40:30.722Z,112.31
2024-03-26T02:41:30.740Z,109.85
2024-03-26T02:42:30.793Z,112.76
2024-03-26T02:43:30.806Z,112.55
2024-03-26T02:44:30.809Z,112.04
2024-03-26T02:45:30.889Z,113.06
2024-03-26T02:46:30.897Z,113.72
2024-03-26T02:47:30.951Z,108.83
2024-03-26T02:48:30.965Z,111.51
2024-03-26T02:49:31.029Z,110.07
2024-03-26T02:50:31.058Z,112.31
2024-03-26T02:51:31.432Z,111.08
2024-03-26T02:52:31.073Z,114.31
2024-03-26T02:53:31.249Z,112.38
2024-03-26T02:54:31.190Z,111.61
2024-03-26T02:55:31.207Z,112.43
2024-03-26T02:56:31.271Z,113.43
2024-03-26T02:57:31.309Z,112.83
2024-03-26T02:58:31.266Z,113.78
2024-03-26T02:59:31.331Z,115.63
2024-03-26T03:00:31.371Z,117.30
2024-03-26T03:01:31.376Z,116.25
2024-03-26T03:02:31.397Z,118.45
2024-03-26T03:03:31.387Z,115.26
2024-03-26T03:04:31.426Z,115.14
2024-03-26T03:05:31.470Z,114.71
2024-03-26T03:06:31.486Z,114.84
2024-03-26T03:07:31.511Z,114.51
2024-03-26T03:08:31.555Z,114.93
2024-03-26T03:09:31.585Z,114.15
2024-03-26T03:10:31.580Z,111.52
2024-03-26T03:11:31.605Z,114.52
2024-03-26T03:12:31.667Z,112.36
2024-03-26T03:13:31.676Z,113.03
2024-03-26T03:14:31.692Z,110.81
2024-03-26T03:15:31.702Z,110.03
2024-03-26T03:16:31.912Z,110.51
2024-03-26T03:17:31.771Z,109.69
2024-03-26T03:18:31.805Z,108.84
2024-03-26T03:19:31.832Z,108.69
2024-03-26T03:20:31.887Z,111.89
2024-03-26T03:21:31.920Z,112.53
2024-03-26T03:22:31.927Z,111.96
2024-03-26T03:23:31.965Z,109.73
2024-03-26T03:24:31.963Z,111.52
2024-03-26T03:25:31.998Z,112.63
2024-03-26T03:26:32.033Z,110.40
2024-03-26T03:27:32.049Z,111.91
2024-03-26T03:28:32.093Z,108.77
2024-03-26T03:29:32.106Z,106.70
2024-03-26T03:30:32.125Z,108.15
2024-03-26T03:31:32.439Z,109.74
2024-03-26T03:32:32.192Z,107.38
2024-03-26T03:33:32.218Z,108.35
2024-03-26T03:34:32.274Z,107.39
2024-03-26T03:35:32.299Z,107.76
2024-03-26T03:36:32.319Z,109.63
2024-03-26T03:37:32.337Z,108.97
2024-03-26T03:38:32.364Z,107.55
2024-03-26T03:39:32.393Z,103.95
2024-03-26T03:40:32.424Z,106.04
2024-03-26T03:41:32.925Z,106.30
2024-03-26T03:42:32.473Z,105.70
2024-03-26T03:43:32.493Z,103.41
2024-03-26T03:44:32.523Z,101.00
2024-03-26T03:45:32.529Z,100.33
2024-03-26T03:46:32.571Z,98.19
2024-03-26T03:47:32.580Z,102.32
2024-03-26T03:48:32.657Z,105.05
2024-03-26T03:49:32.689Z,102.30
2024-03-26T03:50:32.704Z,100.72
2024-03-26T03:51:32.718Z,102.66
2024-03-26T03:52:32.750Z,100.07
2024-03-26T03:53:32.788Z,100.19
2024-03-26T03:54:32.823Z,102.21
2024-03-26T03:55:32.834Z,99.31
2024-03-26T03:56:32.886Z,102.90
2024-03-26T03:57:32.879Z,101.33
2024-03-26T03:58:32.960Z,103.91
2024-03-26T03:59:32.968Z,101.28
2024-03-26T04:00:32.981Z,105.18
2024-03-26T04:01:33.004Z,104.15
2024-03-26T04:02:33.016Z,105.52
2024-03-26T04:03:33.067Z,106.88
2024-03-26T04:04:33.045Z,104.65
2024-03-26T04:05:33.089Z,106.28
2024-03-26T04:06:33.426Z,105.02
2024-03-26T04:07:33.129Z,106.17
2024-03-26T04:08:33.170Z,103.76
2024-03-26T04:09:33.199Z,101.98
2024-03-26T04:10:33.236Z,104.08
2024-03-26T04:11:33.253Z,107.28
2024-03-26T04:12:33.254Z,103.04
2024-03-26T04:13:33.306Z,102.25
2024-03-26T04:14:33.323Z,101.36
2024-03-26T04:15:33.354Z,102.82
2024-03-26T04:16:33.434Z,103.15
2024-03-26T04:17:33.418Z,104.14
2024-03-26T04:18:35.329Z,103.75
2024-03-26T04:19:33.441Z,101.44
2024-03-26T04:20:33.436Z,101.38
2024-03-26T04:21:33.432Z,103.72
2024-03-26T04:22:33.442Z,104.17
2024-03-26T04:23:33.447Z,100.93
2024-03-26T04:24:33.452Z,101.94
2024-03-26T04:25:33.454Z,103.36
2024-03-26T04:26:33.957Z,103.91
2024-03-26T04:27:33.428Z,96.97
2024-03-26T04:28:33.442Z,99.46
2024-03-26T04:29:33.442Z,99.45
2024-03-26T04:30:33.424Z,100.04
2024-03-26T04:31:33.470Z,100.14
2024-03-26T04:32:33.446Z,99.01
2024-03-26T04:33:40.883Z,50.00
2024-03-26T04:34:40.860Z,50.00
2024-03-26T04:35:40.859Z,50.00
2024-03-26T04:36:41.312Z,50.00
2024-03-26T04:37:40.852Z,50.00
2024-03-26T04:38:40.870Z,53.34
2024-03-26T04:39:40.839Z,54.04
2024-03-26T04:40:40.851Z,52.85
2024-03-26T04:41:40.853Z,53.12
2024-03-26T04:42:40.852Z,54.82
2024-03-26T04:43:40.864Z,52.79
2024-03-26T04:44:40.861Z,53.14
2024-03-26T04:45:40.867Z,53.28
2024-03-26T04:46:40.882Z,55.74
2024-03-26T04:47:40.856Z,54.77
2024-03-26T04:48:40.881Z,52.80
2024-03-26T04:49:40.856Z,56.07
2024-03-26T04:50:40.859Z,52.70
2024-03-26T04:51:40.874Z,51.55
2024-03-26T04:52:40.889Z,55.20
2024-03-26T04:53:40.896Z,54.44
2024-03-26T04:54:40.866Z,54.37
2024-03-26T04:55:40.864Z,53.63
2024-03-26T04:56:40.903Z,55.41
2024-03-26T04:57:40.875Z,56.18
2024-03-26T04:58:40.921Z,57.03
2024-03-26T04:59:40.878Z,60.34
2024-03-26T05:00:40.887Z,55.95
2024-03-26T05:01:40.879Z,59.35
2024-03-26T05:02:40.883Z,56.89
2024-03-26T05:03:40.888Z,59.16
2024-03-26T05:04:40.879Z,59.82
2024-03-26T05:05:40.914Z,58.06
2024-03-26T05:06:40.917Z,59.54
2024-03-26T05:07:40.895Z,59.99
2024-03-26T05:08:40.896Z,59.82
2024-03-26T05:09:41.000Z,59.62
2024-03-26T05:10:40.900Z,59.41
2024-03-26T05:11:40.906Z,57.66
2024-03-26T05:12:40.917Z,62.59
2024-03-26T05:13:40.895Z,56.56
2024-03-26T05:14:40.927Z,58.83
2024-03-26T05:15:40.899Z,61.91
2024-03-26T05:16:40.907Z,57.28
2024-03-26T05:17:40.886Z,59.31
2024-03-26T05:18:40.895Z,55.86
2024-03-26T05:19:40.904Z,55.13
2024-03-26T05:20:40.911Z,58.08
2024-03-26T05:21:40.903Z,56.64
2024-03-26T05:22:40.909Z,57.21
2024-03-26T05:23:40.886Z,55.84
2024-03-26T05:24:40.921Z,55.74
2024-03-26T05:25:40.900Z,56.15
2024-03-26T05:26:40.910Z,56.80
2024-03-26T05:27:40.925Z,55.03
2024-03-26T05:28:40.923Z,56.67
2024-03-26T05:29:40.898Z,56.65
2024-03-26T05:30:40.913Z,57.66
2024-03-26T05:31:40.942Z,58.48
2024-03-26T05:32:40.899Z,61.00
2024-03-26T05:33:40.930Z,58.35
2024-03-26T05:34:40.962Z,62.33
2024-03-26T05:35:40.968Z,59.88
2024-03-26T05:36:41.346Z,61.88
2024-03-26T05:37:41.014Z,65.10
2024-03-26T05:38:41.039Z,61.06
2024-03-26T05:39:41.112Z,64.75
2024-03-26T05:40:41.067Z,61.45
2024-03-26T05:41:41.141Z,60.32
2024-03-26T05:42:41.172Z,60.57
2024-03-26T05:43:41.178Z,59.44
2024-03-26T05:44:41.182Z,60.48
2024-03-26T05:45:41.211Z,61.95
2024-03-26T05:46:41.263Z,62.61
2024-03-26T05:47:41.263Z,62.38
2024-03-26T05:48:41.303Z,63.92
2024-03-26T05:49:41.316Z,67.21
2024-03-26T05:50:41.406Z,66.67
2024-03-26T05:51:41.917Z,68.80
2024-03-26T05:52:41.412Z,67.46
2024-03-26T05:53:41.453Z,69.12
2024-03-26T05:54:41.483Z,69.29
2024-03-26T05:55:41.508Z,73.10
2024-03-26T05:56:41.542Z,70.99
2024-03-26T05:57:41.581Z,71.73
2024-03-26T05:58:41.580Z,73.70
2024-03-26T05:59:41.603Z,73.12
2024-03-26T06:00:41.654Z,74.22
2024-03-26T06:01:41.669Z,74.41
2024-03-26T06:02:41.689Z,76.97
2024-03-26T06:03:41.715Z,74.01
2024-03-26T06:04:41.754Z,74.73
2024-03-26T06:05:41.770Z,75.77
2024-03-26T06:06:41.812Z,75.26
2024-03-26T06:07:41.824Z,76.11
2024-03-26T06:08:41.868Z,77.38
2024-03-26T06:09:41.880Z,75.82
2024-03-26T06:10:41.897Z,77.10
2024-03-26T06:11:41.951Z,78.09
2024-03-26T06:12:41.948Z,75.86
2024-03-26T06:13:41.960Z,75.26
2024-03-26T06:14:42.009Z,74.99
2024-03-26T06:15:42.016Z,74.88
2024-03-26T06:16:42.071Z,77.22
2024-03-26T06:17:42.082Z,77.87
2024-03-26T06:18:42.097Z,77.32
2024-03-26T06:19:42.154Z,77.29
2024-03-26T06:20:42.205Z,77.21
2024-03-26T06:21:42.212Z,79.71
2024-03-26T06:22:42.301Z,80.27
2024-03-26T06:23:42.265Z,79.81
2024-03-26T06:24:42.308Z,79.01
2024-03-26T06:25:42.354Z,79.12
2024-03-26T06:26:42.864Z,79.90
2024-03-26T06:27:42.356Z,81.30
2024-03-26T06:28:42.404Z,80.66
2024-03-26T06:29:42.409Z,80.78
2024-03-26T06:30:42.439Z,83.36
2024-03-26T06:31:42.494Z,82.82
2024-03-26T06:32:42.493Z,85.09
2024-03-26T06:33:42.560Z,80.01
2024-03-26T06:34:42.513Z,81.47
2024-03-26T06:35:42.559Z,84.00
2024-03-26T06:36:42.864Z,84.68
2024-03-26T06:37:42.630Z,83.23
2024-03-26T06:38:42.646Z,82.04
2024-03-26T06:39:42.647Z,82.71
2024-03-26T06:40:42.688Z,84.86
2024-03-26T06:41:42.719Z,85.09
2024-03-26T06:42:42.739Z,84.85
2024-03-26T06:43:42.761Z,83.47
2024-03-26T06:44:42.789Z,84.33
2024-03-26T06:45:42.788Z,81.84
2024-03-26T06:46:42.821Z,81.48
2024-03-26T06:47:42.868Z,83.46
2024-03-26T06:48:42.881Z,81.46
2024-03-26T06:49:42.877Z,82.60
2024-03-26T06:50:42.901Z,81.29
2024-03-26T06:51:43.135Z,78.62
2024-03-26T06:52:42.968Z,80.82
2024-03-26T06:53:42.998Z,80.18
2024-03-26T06:54:43.017Z,81.02
2024-03-26T06:55:43.075Z,81.82
2024-03-26T06:56:43.351Z,78.67
2024-03-26T06:57:43.092Z,79.32
2024-03-26T06:58:43.137Z,80.96
2024-03-26T06:59:43.156Z,81.17
2024-03-26T07:00:43.182Z,80.56
2024-03-26T07:01:43.208Z,83.29
2024-03-26T07:02:43.238Z,80.12
2024-03-26T07:03:43.266Z,81.60
2024-03-26T07:04:43.277Z,83.78
2024-03-26T07:05:43.307Z,81.21
2024-03-26T07:06:43.362Z,80.23
2024-03-26T07:07:43.358Z,80.69
2024-03-26T07:08:43.422Z,80.38
2024-03-26T07:09:43.410Z,80.42
2024-03-26T07:10:43.433Z,77.80
2024-03-26T07:11:43.445Z,80.76
2024-03-26T07:12:43.470Z,83.71
2024-03-26T07:13:43.474Z,84.45
2024-03-26T07:14:44.349Z,86.36
2024-03-26T07:15:43.536Z,82.15
2024-03-26T07:16:43.570Z,80.60
2024-03-26T07:17:43.578Z,81.23
2024-03-26T07:18:46.557Z,79.92
2024-03-26T07:19:43.605Z,76.61
2024-03-26T07:20:43.588Z,75.11
2024-03-26T07:21:43.621Z,72.25
2024-03-26T07:22:43.609Z,69.52
2024-03-26T07:23:43.593Z,67.46
2024-03-26T07:24:43.616Z,68.40
2024-03-26T07:25:43.626Z,65.43
2024-03-26T07:26:43.898Z,64.95
2024-03-26T07:27:43.602Z,68.31
2024-03-26T07:28:43.615Z,66.49
2024-03-26T07:29:43.613Z,66.53
2024-03-26T07:30:43.636Z,68.20
2024-03-26T07:31:43.617Z,66.62
2024-03-26T07:32:43.600Z,69.00
2024-03-26T07:33:43.620Z,64.84
2024-03-26T07:34:43.605Z,61.65
2024-03-26T07:35:43.624Z,64.33
2024-03-26T07:36:43.622Z,63.84
2024-03-26T07:37:43.614Z,61.67
2024-03-26T07:38:43.604Z,59.11
2024-03-26T07:39:43.657Z,56.16
2024-03-26T07:40:43.691Z,58.99
2024-03-26T07:41:43.626Z,60.01
2024-03-26T07:42:43.611Z,58.08
2024-03-26T07:43:43.636Z,54.29
2024-03-26T07:44:43.622Z,54.46
2024-03-26T07:45:43.647Z,50.83
2024-03-26T07:46:43.639Z,50.74
2024-03-26T07:47:43.696Z,50.70
2024-03-26T07:48:43.604Z,54.92
2024-03-26T07:49:43.668Z,52.36
2024-03-26T07:50:43.690Z,50.00
2024-03-26T07:51:43.656Z,52.80
2024-03-26T07:52:43.614Z,53.81
2024-03-26T07:53:43.622Z,51.97
2024-03-26T07:54:43.629Z,50.93
2024-03-26T07:55:43.652Z,52.79
2024-03-26T07:56:43.663Z,50.57
2024-03-26T07:57:43.630Z,50.69
2024-03-26T07:58:43.647Z,50.60
2024-03-26T07:59:43.761Z,50.45
2024-03-26T08:00:43.643Z,50.98
2024-03-26T08:01:43.649Z,51.91
2024-03-26T08:02:43.633Z,50.58
2024-03-26T08:03:43.639Z,51.66
2024-03-26T08:04:43.645Z,51.40
2024-03-26T08:05:43.654Z,52.23
2024-03-26T08:06:43.682Z,52.50
2024-03-26T08:07:43.643Z,50.00
2024-03-26T08:08:43.657Z,53.06
2024-03-26T08:09:43.721Z,50.26
2024-03-26T08:10:44.505Z,53.99
2024-03-26T08:11:43.900Z,54.24
2024-03-26T08:12:43.662Z,54.05
2024-03-26T08:13:43.660Z,50.00
2024-03-26T08:14:43.651Z,54.90
2024-03-26T08:15:43.672Z,50.00
2024-03-26T08:16:43.734Z,52.10
2024-03-26T08:17:43.685Z,55.21
2024-03-26T08:18:43.652Z,54.14
2024-03-26T08:19:43.661Z,55.26
2024-03-26T08:20:43.673Z,52.55
2024-03-26T08:21:43.665Z,52.15
2024-03-26T08:22:43.653Z,55.00
2024-03-26T08:23:43.675Z,53.28
2024-03-26T08:24:43.684Z,51.36
2024-03-26T08:25:43.669Z,52.34
2024-03-26T08:26:43.670Z,52.47
2024-03-26T08:27:43.673Z,51.69
2024-03-26T08:28:43.717Z,50.00
2024-03-26T08:29:43.667Z,55.25
2024-03-26T08:30:43.743Z,51.89
2024-03-26T08:31:43.917Z,52.49
2024-03-26T08:32:43.814Z,51.37
2024-03-26T08:33:43.678Z,52.90
2024-03-26T08:34:43.702Z,53.85
2024-03-26T08:35:43.749Z,52.67
2024-03-26T08:36:43.880Z,50.94
2024-03-26T08:37:43.719Z,50.27
2024-03-26T08:38:43.719Z,54.98
2024-03-26T08:39:43.708Z,56.06
2024-03-26T08:40:43.698Z,52.56
2024-03-26T08:41:43.719Z,52.37
2024-03-26T08:42:43.718Z,50.51
2024-03-26T08:43:43.731Z,54.74
2024-03-26T08:44:43.701Z,50.66
2024-03-26T08:45:43.704Z,52.73
2024-03-26T08:46:43.899Z,52.81
2024-03-26T08:47:43.717Z,55.33
2024-03-26T08:48:43.714Z,55.97
2024-03-26T08:49:43.709Z,55.01
2024-03-26T08:50:43.717Z,55.83
2024-03-26T08:51:43.733Z,52.81
2024-03-26T08:52:43.924Z,53.04
2024-03-26T08:53:43.733Z,54.23
2024-03-26T08:54:43.731Z,52.93
2024-03-26T08:55:43.756Z,53.08
2024-03-26T08:56:43.791Z,54.21
2024-03-26T08:57:43.786Z,50.14
2024-03-26T08:58:43.797Z,50.00
2024-03-26T08:59:43.833Z,51.05
2024-03-26T09:00:43.952Z,52.74
2024-03-26T09:01:44.587Z,51.33
2024-03-26T09:02:44.415Z,50.04
2024-03-26T09:03:43.927Z,51.48
2024-03-26T09:04:43.943Z,54.13
2024-03-26T09:05:43.976Z,55.08
2024-03-26T09:06:43.982Z,55.28
2024-03-26T09:07:44.423Z,53.34
2024-03-26T09:08:44.035Z,53.73
2024-03-26T09:09:44.036Z,52.21
2024-03-26T09:10:44.092Z,50.22
2024-03-26T09:11:44.094Z,52.56
2024-03-26T09:12:44.430Z,51.49
2024-03-26T09:13:44.186Z,53.66
2024-03-26T09:14:44.186Z,54.43
2024-03-26T09:15:44.228Z,54.57
2024-03-26T09:16:44.234Z,56.96
2024-03-26T09:17:44.261Z,51.13
2024-03-26T09:18:44.470Z,50.46
2024-03-26T09:19:44.336Z,52.85
2024-03-26T09:20:44.369Z,54.24
2024-03-26T09:21:44.390Z,53.73
2024-03-26T09:22:44.406Z,55.49
2024-03-26T09:23:44.408Z,57.24
2024-03-26T09:24:50.498Z,58.18
2024-03-26T09:25:45.444Z,58.29
2024-03-26T09:26:44.432Z,57.02
2024-03-26T09:27:44.428Z,56.32
2024-03-26T09:28:44.456Z,58.41
2024-03-26T09:29:44.457Z,59.51
2024-03-26T09:30:44.460Z,60.92
2024-03-26T09:31:44.541Z,59.48
2024-03-26T09:32:44.922Z,59.18
2024-03-26T09:33:44.459Z,62.28
2024-03-26T09:34:44.464Z,62.04
2024-03-26T09:35:45.397Z,61.80
2024-03-26T09:36:44.451Z,65.70
2024-03-26T09:37:44.443Z,65.71
2024-03-26T09:38:48.666Z,63.96
2024-03-26T09:39:46.423Z,62.98
2024-03-26T09:40:44.453Z,64.10
2024-03-26T09:41:44.463Z,60.33
2024-03-26T09:42:44.565Z,60.67
2024-03-26T09:43:44.485Z,57.79
2024-03-26T09:44:49.745Z,58.68
2024-03-26T09:45:45.478Z,57.41
2024-03-26T09:46:44.459Z,56.55
2024-03-26T09:47:44.489Z,50.85
2024-03-26T09:48:44.474Z,52.29
2024-03-26T09:49:44.482Z,48.06
2024-03-26T09:50:44.463Z,51.71
2024-03-26T09:51:44.466Z,52.55
2024-03-26T09:52:44.533Z,53.29
2024-03-26T09:53:44.514Z,51.69
2024-03-26T09:54:44.468Z,52.49
2024-03-26T09:55:44.484Z,50.47
2024-03-26T09:56:44.479Z,52.81
2024-03-26T09:57:44.473Z,53.08
2024-03-26T09:58:44.488Z,50.88
2024-03-26T09:59:44.506Z,50.86
2024-03-26T10:00:44.510Z,53.88
2024-03-26T10:01:44.498Z,55.04
2024-03-26T10:02:44.513Z,54.08
2024-03-26T10:03:44.476Z,55.09
2024-03-26T10:04:44.485Z,58.79
2024-03-26T10:05:44.502Z,61.17
2024-03-26T10:06:44.465Z,60.82
2024-03-26T10:07:44.506Z,58.15
2024-03-26T10:08:44.512Z,62.04
2024-03-26T10:09:44.492Z,60.17
2024-03-26T10:10:44.486Z,58.52
2024-03-26T10:11:44.500Z,59.78
2024-03-26T10:12:44.534Z,59.51
2024-03-26T10:13:44.550Z,62.25
2024-03-26T10:14:44.567Z,55.84
2024-03-26T10:15:44.567Z,56.65
2024-03-26T10:16:44.606Z,56.80
2024-03-26T10:17:44.673Z,55.90
2024-03-26T10:18:44.649Z,59.20
2024-03-26T10:19:44.653Z,61.99
2024-03-26T10:20:44.660Z,63.78
2024-03-26T10:21:44.704Z,63.92
2024-03-26T10:22:44.949Z,67.17
2024-03-26T10:23:44.753Z,66.19
2024-03-26T10:24:44.770Z,65.11
2024-03-26T10:25:44.774Z,57.27
2024-03-26T10:26:44.787Z,53.96
2024-03-26T10:27:44.832Z,54.72
2024-03-26T10:28:44.862Z,55.53
2024-03-26T10:29:44.868Z,55.41
2024-03-26T10:30:44.895Z,54.64
2024-03-26T10:31:44.914Z,53.60
2024-03-26T10:32:44.991Z,59.77
2024-03-26T10:33:44.966Z,56.70
2024-03-26T10:34:45.001Z,54.23
2024-03-26T10:35:45.027Z,57.68
2024-03-26T10:36:45.022Z,54.75
2024-03-26T10:37:45.068Z,50.06
2024-03-26T10:38:54.093Z,55.17
2024-03-26T10:39:46.099Z,54.80
2024-03-26T10:40:45.088Z,55.30
2024-03-26T10:41:45.095Z,56.87
2024-03-26T10:42:45.477Z,56.63
2024-03-26T10:43:45.111Z,58.74
2024-03-26T10:44:45.082Z,59.62
2024-03-26T10:45:59.932Z,53.73
2024-03-26T10:46:46.117Z,54.00
2024-03-26T10:47:45.133Z,54.34
2024-03-26T10:48:54.249Z,55.22
2024-03-26T10:49:46.133Z,53.88
2024-03-26T10:50:45.126Z,54.73
2024-03-26T10:51:45.118Z,55.59
2024-03-26T10:52:45.632Z,57.21
2024-03-26T10:53:45.141Z,61.97
2024-03-26T10:54:45.143Z,64.86
2024-03-26T10:55:45.134Z,62.83
2024-03-26T10:56:45.162Z,65.54
2024-03-26T10:57:45.170Z,61.66
2024-03-26T10:58:45.140Z,60.06
2024-03-26T10:59:45.140Z,60.79
2024-03-26T11:00:45.215Z,55.89
2024-03-26T11:01:45.140Z,56.69
2024-03-26T11:02:45.144Z,56.73
2024-03-26T11:03:45.161Z,58.49
2024-03-26T11:04:45.156Z,58.30
2024-03-26T11:05:45.168Z,52.85
2024-03-26T11:06:45.187Z,54.32
2024-03-26T11:07:45.144Z,55.16
2024-03-26T11:08:45.145Z,53.33
2024-03-26T11:09:45.155Z,52.28
2024-03-26T11:10:45.183Z,55.36
2024-03-26T11:11:45.172Z,53.65
2024-03-26T11:12:45.170Z,53.73
2024-03-26T11:13:45.175Z,53.80
2024-03-26T11:14:45.182Z,50.00
2024-03-26T11:15:45.218Z,53.64
2024-03-26T11:16:45.203Z,55.72
2024-03-26T11:17:45.236Z,56.04
2024-03-26T11:18:45.236Z,57.28
2024-03-26T11:19:45.260Z,58.93
2024-03-26T11:20:45.337Z,62.15
2024-03-26T11:21:46.978Z,66.05
2024-03-26T11:22:45.357Z,62.36
2024-03-26T11:23:45.390Z,58.67
2024-03-26T11:24:45.414Z,61.03
2024-03-26T11:25:45.437Z,59.53
2024-03-26T11:26:45.436Z,57.45
2024-03-26T11:27:45.490Z,63.89
2024-03-26T11:28:45.483Z,57.50
2024-03-26T11:29:45.507Z,63.40
2024-03-26T11:30:45.540Z,59.97
2024-03-26T11:31:45.540Z,56.25
2024-03-26T11:32:45.596Z,56.18
2024-03-26T11:33:45.632Z,53.23
2024-03-26T11:34:45.643Z,49.48
2024-03-26T11:35:45.636Z,50.99
2024-03-26T11:36:45.683Z,55.01
2024-03-26T11:37:45.734Z,57.01
2024-03-26T11:38:45.734Z,55.84
2024-03-26T11:39:45.744Z,55.62
2024-03-26T11:40:45.775Z,56.23
2024-03-26T11:41:45.810Z,56.03
2024-03-26T11:42:45.837Z,54.47
2024-03-26T11:43:45.831Z,49.85
2024-03-26T11:44:45.882Z,53.53
2024-03-26T11:45:45.875Z,53.21
2024-03-26T11:46:45.902Z,58.86
2024-03-26T11:47:45.933Z,57.44
2024-03-26T11:48:45.981Z,59.66
2024-03-26T11:49:45.999Z,54.54
2024-03-26T11:50:46.023Z,55.39
2024-03-26T11:51:46.089Z,54.71
2024-03-26T11:52:46.092Z,57.39
2024-03-26T11:53:46.113Z,58.40
2024-03-26T11:54:46.142Z,62.52
2024-03-26T11:55:46.198Z,62.25
2024-03-26T11:56:46.236Z,67.16
2024-03-26T11:57:46.509Z,62.78
2024-03-26T11:58:46.277Z,60.54
2024-03-26T11:59:46.320Z,57.98
2024-03-26T12:00:46.341Z,51.37
2024-03-26T12:01:46.375Z,55.59
2024-03-26T12:02:46.386Z,58.73
2024-03-26T12:03:46.418Z,53.31
2024-03-26T12:04:46.411Z,53.22
2024-03-26T12:05:46.468Z,52.68
2024-03-26T12:06:46.533Z,58.21
2024-03-26T12:07:47.006Z,58.24
2024-03-26T12:08:46.557Z,61.77
2024-03-26T12:09:46.552Z,58.88
2024-03-26T12:10:46.602Z,59.02
2024-03-26T12:11:46.606Z,57.27
2024-03-26T12:12:46.659Z,55.00
2024-03-26T12:13:46.721Z,56.75
2024-03-26T12:14:46.728Z,54.70
2024-03-26T12:15:46.738Z,58.07
2024-03-26T12:16:46.748Z,60.22
2024-03-26T12:17:46.794Z,51.93
2024-03-26T12:18:46.800Z,56.87
2024-03-26T12:19:46.815Z,57.89
2024-03-26T12:20:46.875Z,59.20
2024-03-26T12:21:46.840Z,60.69
2024-03-26T12:22:47.015Z,66.37
2024-03-26T12:23:46.907Z,63.52
2024-03-26T12:24:46.968Z,65.88
2024-03-26T12:25:46.946Z,64.66
2024-03-26T12:26:46.991Z,57.79
2024-03-26T12:27:47.000Z,61.93
2024-03-26T12:28:47.008Z,62.00
2024-03-26T12:29:47.026Z,59.56
2024-03-26T12:30:47.052Z,59.65
2024-03-26T12:31:47.100Z,53.55
2024-03-26T12:32:47.132Z,52.61
2024-03-26T12:33:47.904Z,59.50
2024-03-26T12:34:47.281Z,57.05
2024-03-26T12:35:47.286Z,62.21
2024-03-26T12:36:47.272Z,57.83
2024-03-26T12:37:47.495Z,60.79
2024-03-26T12:38:47.285Z,60.84
2024-03-26T12:39:47.290Z,62.49
2024-03-26T12:40:47.304Z,60.33
2024-03-26T12:41:47.423Z,64.57
2024-03-26T12:42:47.364Z,62.75
2024-03-26T12:43:47.393Z,59.70
2024-03-26T12:44:47.452Z,63.83
2024-03-26T12:45:47.418Z,61.83
2024-03-26T12:46:47.403Z,59.28